Richmond, Maine
Current Conditions -  °F | °C
As of 4:53 PM on Monday 20 Oct 2014 (Local Time) from KIWI Reporting Station
Few Clouds Few Clouds  
Wind Chill: 51°   Ceiling: Unl
Heat Index: 51°   Visibility: 10mi
Dew Point: 30°   Wind: 7mph
Humidity: 44%   Direction: 230°SW
Pressure: 29.95"   Gusts: NA
Location:  44.09°N, 69.8°W
Report Text: KIWI 202053Z AUTO 23006KT 10SM FEW110 11/M01 A2995 RMK AO2 SLP141 T01061011 53000
Loading
Personal Weather Stations






























Interactive Weather Map
Tropical Storm Tracking
New forecast layout! Learn more

10-Day Weather Forecast

Advertisements
Track Severe Weather on mobile